sensor_id;sensor_type;location;lat;lon;timestamp;temperature;humidity
52181;DHT22;38158;53.338;6.514;2022-11-03T00:01:47;10.30;99.90
52181;DHT22;38158;53.338;6.514;2022-11-03T00:04:16;10.30;99.90
52181;DHT22;38158;53.338;6.514;2022-11-03T00:06:44;10.30;99.90
52181;DHT22;38158;53.338;6.514;2022-11-03T00:09:11;10.30;99.90
52181;DHT22;38158;53.338;6.514;2022-11-03T00:11:39;10.30;99.90
52181;DHT22;38158;53.338;6.514;2022-11-03T00:14:05;10.30;99.90
52181;DHT22;38158;53.338;6.514;2022-11-03T00:16:31;10.40;99.90
52181;DHT22;38158;53.338;6.514;2022-11-03T00:18:57;10.40;99.90
52181;DHT22;38158;53.338;6.514;2022-11-03T00:21:23;10.40;99.90
52181;DHT22;38158;53.338;6.514;2022-11-03T00:23:48;10.40;99.90
52181;DHT22;38158;53.338;6.514;2022-11-03T00:26:25;10.40;99.90
52181;DHT22;38158;53.338;6.514;2022-11-03T00:28:53;10.40;99.90
52181;DHT22;38158;53.338;6.514;2022-11-03T00:31:23;10.40;99.90
52181;DHT22;38158;53.338;6.514;2022-11-03T00:33:49;10.40;99.90
52181;DHT22;38158;53.338;6.514;2022-11-03T00:36:18;10.40;99.90
52181;DHT22;38158;53.338;6.514;2022-11-03T00:38:44;10.40;99.90
52181;DHT22;38158;53.338;6.514;2022-11-03T00:41:11;10.30;99.90
52181;DHT22;38158;53.338;6.514;2022-11-03T00:43:37;10.30;99.90
52181;DHT22;38158;53.338;6.514;2022-11-03T00:46:04;10.30;99.90
52181;DHT22;38158;53.338;6.514;2022-11-03T00:48:30;10.30;99.90
52181;DHT22;38158;53.338;6.514;2022-11-03T00:53:34;10.40;99.90
52181;DHT22;38158;53.338;6.514;2022-11-03T00:56:01;10.40;99.90
52181;DHT22;38158;53.338;6.514;2022-11-03T00:58:27;10.30;99.90
52181;DHT22;38158;53.338;6.514;2022-11-03T01:01:03;10.30;99.90
52181;DHT22;38158;53.338;6.514;2022-11-03T01:03:30;10.30;99.90
52181;DHT22;38158;53.338;6.514;2022-11-03T01:05:56;10.30;99.90
52181;DHT22;38158;53.338;6.514;2022-11-03T01:08:40;10.20;99.90
52181;DHT22;38158;53.338;6.514;2022-11-03T01:11:14;10.20;99.90
52181;DHT22;38158;53.338;6.514;2022-11-03T01:13:59;10.20;99.90
52181;DHT22;38158;53.338;6.514;2022-11-03T01:16:25;10.20;99.90
52181;DHT22;38158;53.338;6.514;2022-11-03T01:18:51;10.20;99.90
52181;DHT22;38158;53.338;6.514;2022-11-03T01:21:18;10.20;99.90
52181;DHT22;38158;53.338;6.514;2022-11-03T01:23:43;10.20;99.90
52181;DHT22;38158;53.338;6.514;2022-11-03T01:26:11;10.20;99.90
52181;DHT22;38158;53.338;6.514;2022-11-03T01:28:38;10.20;99.90
52181;DHT22;38158;53.338;6.514;2022-11-03T01:31:08;10.10;99.90
52181;DHT22;38158;53.338;6.514;2022-11-03T01:33:34;10.10;99.90
52181;DHT22;38158;53.338;6.514;2022-11-03T01:36:00;10.20;99.90
52181;DHT22;38158;53.338;6.514;2022-11-03T01:38:26;10.20;99.90
52181;DHT22;38158;53.338;6.514;2022-11-03T01:40:52;10.10;99.90
52181;DHT22;38158;53.338;6.514;2022-11-03T01:43:20;10.10;99.90
52181;DHT22;38158;53.338;6.514;2022-11-03T01:45:49;10.10;99.90
52181;DHT22;38158;53.338;6.514;2022-11-03T01:48:17;10.10;99.90
52181;DHT22;38158;53.338;6.514;2022-11-03T01:50:44;10.10;99.90
52181;DHT22;38158;53.338;6.514;2022-11-03T01:53:12;10.10;99.90
52181;DHT22;38158;53.338;6.514;2022-11-03T01:55:38;10.00;99.90
52181;DHT22;38158;53.338;6.514;2022-11-03T02:00:42;10.00;99.90
52181;DHT22;38158;53.338;6.514;2022-11-03T02:03:08;10.00;99.90
52181;DHT22;38158;53.338;6.514;2022-11-03T02:05:35;10.00;99.90
52181;DHT22;38158;53.338;6.514;2022-11-03T02:08:04;10.00;99.90
52181;DHT22;38158;53.338;6.514;2022-11-03T02:10:32;10.00;99.90
52181;DHT22;38158;53.338;6.514;2022-11-03T02:12:59;10.00;99.90
52181;DHT22;38158;53.338;6.514;2022-11-03T02:15:27;10.00;99.90
52181;DHT22;38158;53.338;6.514;2022-11-03T02:17:54;10.00;99.90
52181;DHT22;38158;53.338;6.514;2022-11-03T02:20:26;10.00;99.90
52181;DHT22;38158;53.338;6.514;2022-11-03T02:25:42;10.00;99.90
52181;DHT22;38158;53.338;6.514;2022-11-03T02:28:08;10.00;99.90
52181;DHT22;38158;53.338;6.514;2022-11-03T02:36:05;10.10;99.90
52181;DHT22;38158;53.338;6.514;2022-11-03T02:38:34;10.10;99.90
52181;DHT22;38158;53.338;6.514;2022-11-03T02:41:03;10.00;99.90
52181;DHT22;38158;53.338;6.514;2022-11-03T02:43:31;10.10;99.90
52181;DHT22;38158;53.338;6.514;2022-11-03T02:45:57;10.10;99.90
52181;DHT22;38158;53.338;6.514;2022-11-03T02:48:23;10.10;99.90
52181;DHT22;38158;53.338;6.514;2022-11-03T02:50:49;10.10;99.90
52181;DHT22;38158;53.338;6.514;2022-11-03T02:53:15;10.10;99.90
52181;DHT22;38158;53.338;6.514;2022-11-03T03:00:59;10.10;99.90
52181;DHT22;38158;53.338;6.514;2022-11-03T03:03:34;10.10;99.90
52181;DHT22;38158;53.338;6.514;2022-11-03T03:06:05;10.10;99.90
52181;DHT22;38158;53.338;6.514;2022-11-03T03:08:34;10.10;99.90
52181;DHT22;38158;53.338;6.514;2022-11-03T03:11:02;10.10;99.90
52181;DHT22;38158;53.338;6.514;2022-11-03T03:13:29;10.10;99.90
52181;DHT22;38158;53.338;6.514;2022-11-03T03:18:55;10.10;99.90
52181;DHT22;38158;53.338;6.514;2022-11-03T03:21:31;10.10;99.90
52181;DHT22;38158;53.338;6.514;2022-11-03T03:24:08;10.10;99.90
52181;DHT22;38158;53.338;6.514;2022-11-03T03:26:43;10.20;99.90
52181;DHT22;38158;53.338;6.514;2022-11-03T03:29:16;10.20;99.90
52181;DHT22;38158;53.338;6.514;2022-11-03T03:31:47;10.20;99.90
52181;DHT22;38158;53.338;6.514;2022-11-03T03:34:15;10.30;99.90
52181;DHT22;38158;53.338;6.514;2022-11-03T03:36:43;10.30;99.90
52181;DHT22;38158;53.338;6.514;2022-11-03T03:39:11;10.30;99.90
52181;DHT22;38158;53.338;6.514;2022-11-03T03:41:39;10.30;99.90
52181;DHT22;38158;53.338;6.514;2022-11-03T03:44:07;10.40;99.90
52181;DHT22;38158;53.338;6.514;2022-11-03T03:46:38;10.40;99.90
52181;DHT22;38158;53.338;6.514;2022-11-03T03:49:06;10.30;99.90
52181;DHT22;38158;53.338;6.514;2022-11-03T03:51:32;10.30;99.90
52181;DHT22;38158;53.338;6.514;2022-11-03T03:53:59;10.40;99.90
52181;DHT22;38158;53.338;6.514;2022-11-03T03:56:32;10.30;99.90
52181;DHT22;38158;53.338;6.514;2022-11-03T03:59:00;10.40;99.90
52181;DHT22;38158;53.338;6.514;2022-11-03T04:01:26;10.30;99.90
52181;DHT22;38158;53.338;6.514;2022-11-03T04:03:51;10.40;99.90
52181;DHT22;38158;53.338;6.514;2022-11-03T04:06:17;10.40;99.90
52181;DHT22;38158;53.338;6.514;2022-11-03T04:08:43;10.40;99.90
52181;DHT22;38158;53.338;6.514;2022-11-03T04:11:08;10.40;99.90
52181;DHT22;38158;53.338;6.514;2022-11-03T04:13:53;10.40;99.90
52181;DHT22;38158;53.338;6.514;2022-11-03T04:16:37;10.30;99.90
52181;DHT22;38158;53.338;6.514;2022-11-03T04:19:21;10.30;99.90
52181;DHT22;38158;53.338;6.514;2022-11-03T04:22:06;10.30;99.90
52181;DHT22;38158;53.338;6.514;2022-11-03T04:24:42;10.30;99.90
52181;DHT22;38158;53.338;6.514;2022-11-03T04:27:29;10.30;99.90
52181;DHT22;38158;53.338;6.514;2022-11-03T04:29:58;10.30;99.90
52181;DHT22;38158;53.338;6.514;2022-11-03T04:32:25;10.30;99.90
52181;DHT22;38158;53.338;6.514;2022-11-03T04:34:51;10.20;99.90
52181;DHT22;38158;53.338;6.514;2022-11-03T04:37:17;10.20;99.90
52181;DHT22;38158;53.338;6.514;2022-11-03T04:39:42;10.20;99.90
52181;DHT22;38158;53.338;6.514;2022-11-03T04:42:20;10.20;99.90
52181;DHT22;38158;53.338;6.514;2022-11-03T04:44:47;10.20;99.90
52181;DHT22;38158;53.338;6.514;2022-11-03T04:47:15;10.20;99.90
52181;DHT22;38158;53.338;6.514;2022-11-03T04:49:42;10.20;99.90
52181;DHT22;38158;53.338;6.514;2022-11-03T04:52:14;10.20;99.90
52181;DHT22;38158;53.338;6.514;2022-11-03T04:54:41;10.20;99.90
52181;DHT22;38158;53.338;6.514;2022-11-03T04:57:12;10.20;99.90
52181;DHT22;38158;53.338;6.514;2022-11-03T04:59:44;10.20;99.90
52181;DHT22;38158;53.338;6.514;2022-11-03T05:02:15;10.30;99.90
52181;DHT22;38158;53.338;6.514;2022-11-03T05:04:41;10.30;99.90
52181;DHT22;38158;53.338;6.514;2022-11-03T05:09:48;10.30;99.90
52181;DHT22;38158;53.338;6.514;2022-11-03T05:12:14;10.30;99.90
52181;DHT22;38158;53.338;6.514;2022-11-03T05:14:40;10.30;99.90
52181;DHT22;38158;53.338;6.514;2022-11-03T05:17:22;10.20;99.90
52181;DHT22;38158;53.338;6.514;2022-11-03T05:19:56;10.20;99.90
52181;DHT22;38158;53.338;6.514;2022-11-03T05:22:23;10.20;99.90
52181;DHT22;38158;53.338;6.514;2022-11-03T05:24:55;10.20;99.90
52181;DHT22;38158;53.338;6.514;2022-11-03T05:27:22;10.20;99.90
52181;DHT22;38158;53.338;6.514;2022-11-03T05:29:49;10.20;99.90
52181;DHT22;38158;53.338;6.514;2022-11-03T05:32:22;10.20;99.90
52181;DHT22;38158;53.338;6.514;2022-11-03T05:34:53;10.20;99.90
52181;DHT22;38158;53.338;6.514;2022-11-03T05:39:49;10.10;99.90
52181;DHT22;38158;53.338;6.514;2022-11-03T05:42:27;10.20;99.90
52181;DHT22;38158;53.338;6.514;2022-11-03T05:44:54;10.20;99.90
52181;DHT22;38158;53.338;6.514;2022-11-03T05:47:24;10.10;99.90
52181;DHT22;38158;53.338;6.514;2022-11-03T05:49:54;10.10;99.90
52181;DHT22;38158;53.338;6.514;2022-11-03T05:52:23;10.10;99.90
52181;DHT22;38158;53.338;6.514;2022-11-03T05:54:51;10.10;99.90
52181;DHT22;38158;53.338;6.514;2022-11-03T05:57:18;10.10;99.90
52181;DHT22;38158;53.338;6.514;2022-11-03T05:59:46;10.10;99.90
52181;DHT22;38158;53.338;6.514;2022-11-03T06:02:39;10.10;99.90
52181;DHT22;38158;53.338;6.514;2022-11-03T06:05:21;10.10;99.90
52181;DHT22;38158;53.338;6.514;2022-11-03T06:07:48;10.10;99.90
52181;DHT22;38158;53.338;6.514;2022-11-03T06:10:26;10.10;99.90
52181;DHT22;38158;53.338;6.514;2022-11-03T06:12:59;10.10;99.90
52181;DHT22;38158;53.338;6.514;2022-11-03T06:15:33;10.10;99.90
52181;DHT22;38158;53.338;6.514;2022-11-03T06:18:01;10.10;99.90
52181;DHT22;38158;53.338;6.514;2022-11-03T06:20:30;10.10;99.90
52181;DHT22;38158;53.338;6.514;2022-11-03T06:22:55;10.10;99.90
52181;DHT22;38158;53.338;6.514;2022-11-03T06:25:32;10.10;99.90
52181;DHT22;38158;53.338;6.514;2022-11-03T06:28:03;10.10;99.90
52181;DHT22;38158;53.338;6.514;2022-11-03T06:30:33;10.10;99.90
52181;DHT22;38158;53.338;6.514;2022-11-03T06:33:13;10.10;99.90
52181;DHT22;38158;53.338;6.514;2022-11-03T06:35:41;10.10;99.90
52181;DHT22;38158;53.338;6.514;2022-11-03T06:38:26;10.10;99.90
52181;DHT22;38158;53.338;6.514;2022-11-03T06:40:52;10.10;99.90
52181;DHT22;38158;53.338;6.514;2022-11-03T06:43:21;10.10;99.90
52181;DHT22;38158;53.338;6.514;2022-11-03T06:45:51;10.10;99.90
52181;DHT22;38158;53.338;6.514;2022-11-03T06:48:24;10.20;99.90
52181;DHT22;38158;53.338;6.514;2022-11-03T06:50:50;10.20;99.90
52181;DHT22;38158;53.338;6.514;2022-11-03T06:53:22;10.20;99.90
52181;DHT22;38158;53.338;6.514;2022-11-03T06:55:48;10.20;99.90
52181;DHT22;38158;53.338;6.514;2022-11-03T07:00:41;10.30;99.90
52181;DHT22;38158;53.338;6.514;2022-11-03T07:05:38;10.30;99.90
52181;DHT22;38158;53.338;6.514;2022-11-03T07:08:26;10.40;99.90
52181;DHT22;38158;53.338;6.514;2022-11-03T07:11:21;10.40;99.90
52181;DHT22;38158;53.338;6.514;2022-11-03T07:13:54;10.40;99.90
52181;DHT22;38158;53.338;6.514;2022-11-03T07:16:29;10.40;99.90
52181;DHT22;38158;53.338;6.514;2022-11-03T07:18:59;10.50;99.90
52181;DHT22;38158;53.338;6.514;2022-11-03T07:21:44;10.50;99.90
52181;DHT22;38158;53.338;6.514;2022-11-03T07:24:17;10.50;99.90
52181;DHT22;38158;53.338;6.514;2022-11-03T07:26:43;10.50;99.90
52181;DHT22;38158;53.338;6.514;2022-11-03T07:29:20;10.50;99.90
52181;DHT22;38158;53.338;6.514;2022-11-03T07:31:48;10.50;99.90
52181;DHT22;38158;53.338;6.514;2022-11-03T07:34:21;10.60;99.90
52181;DHT22;38158;53.338;6.514;2022-11-03T07:36:48;10.60;99.90
52181;DHT22;38158;53.338;6.514;2022-11-03T07:39:18;10.60;99.90
52181;DHT22;38158;53.338;6.514;2022-11-03T07:41:44;10.70;99.90
52181;DHT22;38158;53.338;6.514;2022-11-03T07:44:16;10.70;99.90
52181;DHT22;38158;53.338;6.514;2022-11-03T07:46:45;10.70;99.90
52181;DHT22;38158;53.338;6.514;2022-11-03T07:49:28;10.80;99.90
52181;DHT22;38158;53.338;6.514;2022-11-03T07:51:56;10.80;99.90
52181;DHT22;38158;53.338;6.514;2022-11-03T07:54:29;10.90;99.90
52181;DHT22;38158;53.338;6.514;2022-11-03T07:59:41;11.00;99.90
52181;DHT22;38158;53.338;6.514;2022-11-03T08:02:32;11.00;99.90
52181;DHT22;38158;53.338;6.514;2022-11-03T08:04:59;11.00;99.90
52181;DHT22;38158;53.338;6.514;2022-11-03T08:07:25;11.10;99.90
52181;DHT22;38158;53.338;6.514;2022-11-03T08:09:52;11.10;99.90
52181;DHT22;38158;53.338;6.514;2022-11-03T08:12:18;11.20;99.90
52181;DHT22;38158;53.338;6.514;2022-11-03T08:14:44;11.20;99.90
52181;DHT22;38158;53.338;6.514;2022-11-03T08:17:10;11.20;99.90
52181;DHT22;38158;53.338;6.514;2022-11-03T08:19:36;11.20;99.90
52181;DHT22;38158;53.338;6.514;2022-11-03T08:22:01;11.20;99.90
52181;DHT22;38158;53.338;6.514;2022-11-03T08:24:27;11.30;99.90
52181;DHT22;38158;53.338;6.514;2022-11-03T08:26:52;11.30;99.90
52181;DHT22;38158;53.338;6.514;2022-11-03T08:29:18;11.30;99.90
52181;DHT22;38158;53.338;6.514;2022-11-03T08:31:44;11.40;99.90
52181;DHT22;38158;53.338;6.514;2022-11-03T08:34:10;11.40;99.90
52181;DHT22;38158;53.338;6.514;2022-11-03T08:36:36;11.50;99.90
52181;DHT22;38158;53.338;6.514;2022-11-03T08:39:02;11.50;99.90
52181;DHT22;38158;53.338;6.514;2022-11-03T08:41:28;11.50;99.90
52181;DHT22;38158;53.338;6.514;2022-11-03T08:43:54;11.60;99.90
52181;DHT22;38158;53.338;6.514;2022-11-03T08:46:19;11.70;99.90
52181;DHT22;38158;53.338;6.514;2022-11-03T08:48:45;11.70;99.90
52181;DHT22;38158;53.338;6.514;2022-11-03T08:51:11;11.80;99.90
52181;DHT22;38158;53.338;6.514;2022-11-03T08:53:38;11.90;99.90
52181;DHT22;38158;53.338;6.514;2022-11-03T08:56:05;12.10;99.90
52181;DHT22;38158;53.338;6.514;2022-11-03T08:58:31;12.20;99.90
52181;DHT22;38158;53.338;6.514;2022-11-03T09:00:57;12.20;99.90
52181;DHT22;38158;53.338;6.514;2022-11-03T09:03:23;12.30;99.90
52181;DHT22;38158;53.338;6.514;2022-11-03T09:05:49;12.40;99.90
52181;DHT22;38158;53.338;6.514;2022-11-03T09:08:14;12.40;99.90
52181;DHT22;38158;53.338;6.514;2022-11-03T09:10:40;12.50;99.90
52181;DHT22;38158;53.338;6.514;2022-11-03T09:13:06;12.50;99.90
52181;DHT22;38158;53.338;6.514;2022-11-03T09:15:32;12.50;99.90
52181;DHT22;38158;53.338;6.514;2022-11-03T09:17:58;12.60;99.90
52181;DHT22;38158;53.338;6.514;2022-11-03T09:20:24;12.60;99.90
52181;DHT22;38158;53.338;6.514;2022-11-03T09:22:50;12.60;99.90
52181;DHT22;38158;53.338;6.514;2022-11-03T09:25:16;12.60;99.90
52181;DHT22;38158;53.338;6.514;2022-11-03T09:27:41;12.60;99.90
52181;DHT22;38158;53.338;6.514;2022-11-03T09:30:08;12.60;99.90
52181;DHT22;38158;53.338;6.514;2022-11-03T09:32:34;12.50;99.90
52181;DHT22;38158;53.338;6.514;2022-11-03T09:35:00;12.50;99.90
52181;DHT22;38158;53.338;6.514;2022-11-03T09:37:25;12.60;99.90
52181;DHT22;38158;53.338;6.514;2022-11-03T09:39:52;12.60;99.90
52181;DHT22;38158;53.338;6.514;2022-11-03T09:42:17;12.60;99.90
52181;DHT22;38158;53.338;6.514;2022-11-03T09:44:44;12.60;99.90
52181;DHT22;38158;53.338;6.514;2022-11-03T09:47:19;12.70;99.90
52181;DHT22;38158;53.338;6.514;2022-11-03T09:49:47;12.70;99.90
52181;DHT22;38158;53.338;6.514;2022-11-03T09:52:15;12.70;99.90
52181;DHT22;38158;53.338;6.514;2022-11-03T09:54:43;12.70;99.90
52181;DHT22;38158;53.338;6.514;2022-11-03T09:57:11;12.80;99.90
52181;DHT22;38158;53.338;6.514;2022-11-03T09:59:37;12.80;99.90
52181;DHT22;38158;53.338;6.514;2022-11-03T10:02:28;12.80;99.90
52181;DHT22;38158;53.338;6.514;2022-11-03T10:04:57;12.90;99.90
52181;DHT22;38158;53.338;6.514;2022-11-03T10:07:26;13.00;99.90
52181;DHT22;38158;53.338;6.514;2022-11-03T10:09:53;13.00;99.90
52181;DHT22;38158;53.338;6.514;2022-11-03T10:12:21;13.10;99.90
52181;DHT22;38158;53.338;6.514;2022-11-03T10:14:48;13.10;99.90
52181;DHT22;38158;53.338;6.514;2022-11-03T10:17:25;13.20;99.90
52181;DHT22;38158;53.338;6.514;2022-11-03T10:19:52;13.30;99.90
52181;DHT22;38158;53.338;6.514;2022-11-03T10:22:21;13.30;99.90
52181;DHT22;38158;53.338;6.514;2022-11-03T10:24:47;13.40;99.90
52181;DHT22;38158;53.338;6.514;2022-11-03T10:27:21;13.50;99.90
52181;DHT22;38158;53.338;6.514;2022-11-03T10:30:07;13.50;99.90
52181;DHT22;38158;53.338;6.514;2022-11-03T10:32:33;13.50;99.90
52181;DHT22;38158;53.338;6.514;2022-11-03T10:34:59;13.50;99.90
52181;DHT22;38158;53.338;6.514;2022-11-03T10:37:26;13.50;99.90
52181;DHT22;38158;53.338;6.514;2022-11-03T10:39:53;13.50;99.90
52181;DHT22;38158;53.338;6.514;2022-11-03T10:42:27;13.50;99.90
52181;DHT22;38158;53.338;6.514;2022-11-03T10:47:42;13.60;99.90
52181;DHT22;38158;53.338;6.514;2022-11-03T10:50:25;13.50;99.90
52181;DHT22;38158;53.338;6.514;2022-11-03T10:52:51;13.60;99.90
52181;DHT22;38158;53.338;6.514;2022-11-03T10:55:19;13.60;99.90
52181;DHT22;38158;53.338;6.514;2022-11-03T10:57:45;13.60;99.90
52181;DHT22;38158;53.338;6.514;2022-11-03T11:00:15;13.70;99.90
52181;DHT22;38158;53.338;6.514;2022-11-03T11:02:45;13.70;99.90
52181;DHT22;38158;53.338;6.514;2022-11-03T11:05:20;13.80;99.90
52181;DHT22;38158;53.338;6.514;2022-11-03T11:07:49;13.80;99.90
52181;DHT22;38158;53.338;6.514;2022-11-03T11:10:25;13.90;99.90
52181;DHT22;38158;53.338;6.514;2022-11-03T11:20:57;14.20;99.90
52181;DHT22;38158;53.338;6.514;2022-11-03T11:28:39;14.30;99.90
52181;DHT22;38158;53.338;6.514;2022-11-03T11:31:30;14.40;99.90
52181;DHT22;38158;53.338;6.514;2022-11-03T11:52:56;15.00;99.90
52181;DHT22;38158;53.338;6.514;2022-11-03T11:58:05;15.10;99.90
52181;DHT22;38158;53.338;6.514;2022-11-03T12:01:34;15.00;99.90
52181;DHT22;38158;53.338;6.514;2022-11-03T12:03:40;15.00;99.90
52181;DHT22;38158;53.338;6.514;2022-11-03T12:06:07;14.90;99.90
52181;DHT22;38158;53.338;6.514;2022-11-03T12:08:36;14.90;99.90
52181;DHT22;38158;53.338;6.514;2022-11-03T12:11:03;14.90;99.90
52181;DHT22;38158;53.338;6.514;2022-11-03T12:13:49;14.80;99.90
52181;DHT22;38158;53.338;6.514;2022-11-03T12:16:35;14.80;99.90
52181;DHT22;38158;53.338;6.514;2022-11-03T12:19:39;14.80;99.90
52181;DHT22;38158;53.338;6.514;2022-11-03T12:24:47;14.80;99.90
52181;DHT22;38158;53.338;6.514;2022-11-03T12:27:38;14.90;99.90
52181;DHT22;38158;53.338;6.514;2022-11-03T12:30:14;14.90;99.90
52181;DHT22;38158;53.338;6.514;2022-11-03T12:32:40;14.80;99.90
52181;DHT22;38158;53.338;6.514;2022-11-03T12:35:07;14.80;99.90
52181;DHT22;38158;53.338;6.514;2022-11-03T12:37:34;14.80;99.90
52181;DHT22;38158;53.338;6.514;2022-11-03T12:39:59;14.80;99.90
52181;DHT22;38158;53.338;6.514;2022-11-03T12:42:25;14.80;99.90
52181;DHT22;38158;53.338;6.514;2022-11-03T12:44:51;14.80;99.90
52181;DHT22;38158;53.338;6.514;2022-11-03T12:47:17;14.80;99.90
52181;DHT22;38158;53.338;6.514;2022-11-03T12:49:42;14.80;99.90
52181;DHT22;38158;53.338;6.514;2022-11-03T12:52:08;14.70;99.90
52181;DHT22;38158;53.338;6.514;2022-11-03T12:54:34;14.70;99.90
52181;DHT22;38158;53.338;6.514;2022-11-03T12:57:00;14.70;99.90
52181;DHT22;38158;53.338;6.514;2022-11-03T12:59:26;14.70;99.90
52181;DHT22;38158;53.338;6.514;2022-11-03T13:01:51;14.70;99.90
52181;DHT22;38158;53.338;6.514;2022-11-03T13:04:17;14.70;99.90
52181;DHT22;38158;53.338;6.514;2022-11-03T13:06:43;14.70;99.90
52181;DHT22;38158;53.338;6.514;2022-11-03T13:09:08;14.70;99.90
52181;DHT22;38158;53.338;6.514;2022-11-03T13:11:34;14.70;99.90
52181;DHT22;38158;53.338;6.514;2022-11-03T13:14:18;14.80;99.90
52181;DHT22;38158;53.338;6.514;2022-11-03T13:16:44;14.80;99.90
52181;DHT22;38158;53.338;6.514;2022-11-03T13:19:10;14.80;99.90
52181;DHT22;38158;53.338;6.514;2022-11-03T13:21:36;14.80;99.90
52181;DHT22;38158;53.338;6.514;2022-11-03T13:24:02;14.80;99.90
52181;DHT22;38158;53.338;6.514;2022-11-03T13:26:27;14.80;99.90
52181;DHT22;38158;53.338;6.514;2022-11-03T13:28:53;14.80;99.90
52181;DHT22;38158;53.338;6.514;2022-11-03T13:31:19;14.70;99.90
52181;DHT22;38158;53.338;6.514;2022-11-03T13:33:44;14.70;99.90
52181;DHT22;38158;53.338;6.514;2022-11-03T13:36:10;14.70;99.90
52181;DHT22;38158;53.338;6.514;2022-11-03T13:38:36;14.70;99.90
52181;DHT22;38158;53.338;6.514;2022-11-03T13:41:01;14.70;99.90
52181;DHT22;38158;53.338;6.514;2022-11-03T13:43:27;14.70;99.90
52181;DHT22;38158;53.338;6.514;2022-11-03T13:45:53;14.70;99.90
52181;DHT22;38158;53.338;6.514;2022-11-03T13:48:23;14.70;99.90
52181;DHT22;38158;53.338;6.514;2022-11-03T13:50:48;14.60;99.90
52181;DHT22;38158;53.338;6.514;2022-11-03T13:53:17;14.60;99.90
52181;DHT22;38158;53.338;6.514;2022-11-03T13:55:43;14.60;99.90
52181;DHT22;38158;53.338;6.514;2022-11-03T13:58:08;14.50;99.90
52181;DHT22;38158;53.338;6.514;2022-11-03T14:00:34;14.50;99.90
52181;DHT22;38158;53.338;6.514;2022-11-03T14:03:00;14.50;99.90
52181;DHT22;38158;53.338;6.514;2022-11-03T14:05:25;14.40;99.90
52181;DHT22;38158;53.338;6.514;2022-11-03T14:07:51;14.40;99.90
52181;DHT22;38158;53.338;6.514;2022-11-03T14:10:17;14.30;99.90
52181;DHT22;38158;53.338;6.514;2022-11-03T14:12:42;14.30;99.90
52181;DHT22;38158;53.338;6.514;2022-11-03T14:15:09;14.30;99.90
52181;DHT22;38158;53.338;6.514;2022-11-03T14:17:36;14.30;99.90
52181;DHT22;38158;53.338;6.514;2022-11-03T14:20:02;14.30;99.90
52181;DHT22;38158;53.338;6.514;2022-11-03T14:22:28;14.30;99.90
52181;DHT22;38158;53.338;6.514;2022-11-03T14:24:57;14.30;99.90
52181;DHT22;38158;53.338;6.514;2022-11-03T14:27:23;14.30;99.90
52181;DHT22;38158;53.338;6.514;2022-11-03T14:29:49;14.20;99.90
52181;DHT22;38158;53.338;6.514;2022-11-03T14:32:16;14.20;99.90
52181;DHT22;38158;53.338;6.514;2022-11-03T14:34:42;14.20;99.90
52181;DHT22;38158;53.338;6.514;2022-11-03T14:37:10;14.20;99.90
52181;DHT22;38158;53.338;6.514;2022-11-03T14:39:37;14.20;99.90
52181;DHT22;38158;53.338;6.514;2022-11-03T14:42:04;14.10;99.90
52181;DHT22;38158;53.338;6.514;2022-11-03T14:44:31;14.10;99.90
52181;DHT22;38158;53.338;6.514;2022-11-03T14:46:57;14.00;99.90
52181;DHT22;38158;53.338;6.514;2022-11-03T14:49:23;13.90;99.90
52181;DHT22;38158;53.338;6.514;2022-11-03T14:51:48;13.90;99.90
52181;DHT22;38158;53.338;6.514;2022-11-03T14:54:15;13.80;99.90
52181;DHT22;38158;53.338;6.514;2022-11-03T14:56:41;13.80;99.90
52181;DHT22;38158;53.338;6.514;2022-11-03T14:59:06;13.70;99.90
52181;DHT22;38158;53.338;6.514;2022-11-03T15:01:32;13.60;99.90
52181;DHT22;38158;53.338;6.514;2022-11-03T15:03:58;13.60;99.90
52181;DHT22;38158;53.338;6.514;2022-11-03T15:06:23;13.60;99.90
52181;DHT22;38158;53.338;6.514;2022-11-03T15:08:49;13.50;99.90
52181;DHT22;38158;53.338;6.514;2022-11-03T15:11:15;13.50;99.90
52181;DHT22;38158;53.338;6.514;2022-11-03T15:13:41;13.50;99.90
52181;DHT22;38158;53.338;6.514;2022-11-03T15:16:06;13.50;99.90
52181;DHT22;38158;53.338;6.514;2022-11-03T15:18:32;13.60;99.90
52181;DHT22;38158;53.338;6.514;2022-11-03T15:20:58;13.60;99.90
52181;DHT22;38158;53.338;6.514;2022-11-03T15:23:23;13.50;99.90
52181;DHT22;38158;53.338;6.514;2022-11-03T15:25:49;13.50;99.90
52181;DHT22;38158;53.338;6.514;2022-11-03T15:28:15;13.50;99.90
52181;DHT22;38158;53.338;6.514;2022-11-03T15:30:40;13.50;99.90
52181;DHT22;38158;53.338;6.514;2022-11-03T15:33:06;13.40;99.90
52181;DHT22;38158;53.338;6.514;2022-11-03T15:35:32;13.40;99.90
52181;DHT22;38158;53.338;6.514;2022-11-03T15:37:58;13.40;99.90
52181;DHT22;38158;53.338;6.514;2022-11-03T15:40:24;13.30;99.90
52181;DHT22;38158;53.338;6.514;2022-11-03T15:42:50;13.30;99.90
52181;DHT22;38158;53.338;6.514;2022-11-03T15:45:16;13.20;99.90
52181;DHT22;38158;53.338;6.514;2022-11-03T15:47:42;13.20;99.90
52181;DHT22;38158;53.338;6.514;2022-11-03T15:50:10;13.20;99.90
52181;DHT22;38158;53.338;6.514;2022-11-03T15:52:35;13.10;99.90
52181;DHT22;38158;53.338;6.514;2022-11-03T15:55:01;13.10;99.90
52181;DHT22;38158;53.338;6.514;2022-11-03T15:57:27;13.10;99.90
52181;DHT22;38158;53.338;6.514;2022-11-03T15:59:53;13.10;99.90
52181;DHT22;38158;53.338;6.514;2022-11-03T16:02:18;13.10;99.90
52181;DHT22;38158;53.338;6.514;2022-11-03T16:04:44;13.10;99.90
52181;DHT22;38158;53.338;6.514;2022-11-03T16:07:10;13.00;99.90
52181;DHT22;38158;53.338;6.514;2022-11-03T16:09:35;13.00;99.90
52181;DHT22;38158;53.338;6.514;2022-11-03T16:12:01;13.00;99.90
52181;DHT22;38158;53.338;6.514;2022-11-03T16:14:27;13.00;99.90
52181;DHT22;38158;53.338;6.514;2022-11-03T16:16:53;12.90;99.90
52181;DHT22;38158;53.338;6.514;2022-11-03T16:19:18;12.90;99.90
52181;DHT22;38158;53.338;6.514;2022-11-03T16:21:44;12.90;99.90
52181;DHT22;38158;53.338;6.514;2022-11-03T16:24:10;12.90;99.90
52181;DHT22;38158;53.338;6.514;2022-11-03T16:26:36;12.80;99.90
52181;DHT22;38158;53.338;6.514;2022-11-03T16:29:01;12.80;99.90
52181;DHT22;38158;53.338;6.514;2022-11-03T16:31:27;12.80;99.90
52181;DHT22;38158;53.338;6.514;2022-11-03T16:33:53;12.80;99.90
52181;DHT22;38158;53.338;6.514;2022-11-03T16:36:18;12.80;99.90
52181;DHT22;38158;53.338;6.514;2022-11-03T16:38:44;12.80;99.90
52181;DHT22;38158;53.338;6.514;2022-11-03T16:41:10;12.80;99.90
52181;DHT22;38158;53.338;6.514;2022-11-03T16:43:36;12.80;99.90
52181;DHT22;38158;53.338;6.514;2022-11-03T16:46:03;12.70;99.90
52181;DHT22;38158;53.338;6.514;2022-11-03T16:48:29;12.70;99.90
52181;DHT22;38158;53.338;6.514;2022-11-03T16:50:55;12.70;99.90
52181;DHT22;38158;53.338;6.514;2022-11-03T16:53:23;12.70;99.90
52181;DHT22;38158;53.338;6.514;2022-11-03T16:55:49;12.70;99.90